sensor_id;sensor_type;location;lat;lon;timestamp;P1;durP1;ratioP1;P2;durP2;ratioP2
71767;SDS011;59604;52.138;5.446;2022-12-04T00:00:12;46.95;;;14.60;;
71767;SDS011;59604;52.138;5.446;2022-12-04T00:02:39;49.58;;;15.00;;
71767;SDS011;59604;52.138;5.446;2022-12-04T00:05:07;49.55;;;14.10;;
71767;SDS011;59604;52.138;5.446;2022-12-04T00:07:34;51.80;;;14.25;;
71767;SDS011;59604;52.138;5.446;2022-12-04T00:10:01;51.58;;;15.75;;
71767;SDS011;59604;52.138;5.446;2022-12-04T00:12:29;52.58;;;14.57;;
71767;SDS011;59604;52.138;5.446;2022-12-04T00:14:55;50.00;;;15.00;;
71767;SDS011;59604;52.138;5.446;2022-12-04T00:17:42;48.53;;;14.95;;
71767;SDS011;59604;52.138;5.446;2022-12-04T00:20:13;50.70;;;13.90;;
71767;SDS011;59604;52.138;5.446;2022-12-04T00:22:40;46.60;;;13.45;;
71767;SDS011;59604;52.138;5.446;2022-12-04T00:25:06;49.30;;;14.80;;
71767;SDS011;59604;52.138;5.446;2022-12-04T00:27:33;53.88;;;14.48;;
71767;SDS011;59604;52.138;5.446;2022-12-04T00:30:00;55.72;;;15.85;;
71767;SDS011;59604;52.138;5.446;2022-12-04T00:32:27;51.88;;;14.73;;
71767;SDS011;59604;52.138;5.446;2022-12-04T00:34:53;51.72;;;14.65;;
71767;SDS011;59604;52.138;5.446;2022-12-04T00:37:20;50.75;;;14.43;;
71767;SDS011;59604;52.138;5.446;2022-12-04T00:39:46;44.90;;;13.35;;
71767;SDS011;59604;52.138;5.446;2022-12-04T00:42:13;51.65;;;15.70;;
71767;SDS011;59604;52.138;5.446;2022-12-04T00:44:39;50.90;;;14.95;;
71767;SDS011;59604;52.138;5.446;2022-12-04T00:47:06;51.55;;;14.10;;
71767;SDS011;59604;52.138;5.446;2022-12-04T00:49:32;51.38;;;14.80;;
71767;SDS011;59604;52.138;5.446;2022-12-04T00:51:59;56.38;;;16.05;;
71767;SDS011;59604;52.138;5.446;2022-12-04T00:54:26;51.42;;;14.75;;
71767;SDS011;59604;52.138;5.446;2022-12-04T00:56:52;52.67;;;14.85;;
71767;SDS011;59604;52.138;5.446;2022-12-04T00:59:19;45.15;;;14.55;;
71767;SDS011;59604;52.138;5.446;2022-12-04T01:01:45;51.10;;;14.82;;
71767;SDS011;59604;52.138;5.446;2022-12-04T01:04:12;54.90;;;16.58;;
71767;SDS011;59604;52.138;5.446;2022-12-04T01:06:38;47.90;;;14.40;;
71767;SDS011;59604;52.138;5.446;2022-12-04T01:09:05;49.88;;;14.50;;
71767;SDS011;59604;52.138;5.446;2022-12-04T01:11:32;49.30;;;14.73;;
71767;SDS011;59604;52.138;5.446;2022-12-04T01:13:59;47.30;;;15.10;;
71767;SDS011;59604;52.138;5.446;2022-12-04T01:16:28;53.40;;;14.63;;
71767;SDS011;59604;52.138;5.446;2022-12-04T01:18:58;52.28;;;16.13;;
71767;SDS011;59604;52.138;5.446;2022-12-04T01:21:25;50.00;;;15.18;;
71767;SDS011;59604;52.138;5.446;2022-12-04T01:23:52;51.63;;;14.60;;
71767;SDS011;59604;52.138;5.446;2022-12-04T01:26:18;51.28;;;15.77;;
71767;SDS011;59604;52.138;5.446;2022-12-04T01:28:45;56.50;;;16.73;;
71767;SDS011;59604;52.138;5.446;2022-12-04T01:31:13;48.63;;;15.73;;
71767;SDS011;59604;52.138;5.446;2022-12-04T01:33:42;46.67;;;14.52;;
71767;SDS011;59604;52.138;5.446;2022-12-04T01:36:11;46.50;;;15.02;;
71767;SDS011;59604;52.138;5.446;2022-12-04T01:38:39;50.63;;;14.75;;
71767;SDS011;59604;52.138;5.446;2022-12-04T01:41:07;47.10;;;13.88;;
71767;SDS011;59604;52.138;5.446;2022-12-04T01:43:36;50.20;;;16.48;;
71767;SDS011;59604;52.138;5.446;2022-12-04T01:46:04;54.05;;;16.52;;
71767;SDS011;59604;52.138;5.446;2022-12-04T01:51:19;50.53;;;14.57;;
71767;SDS011;59604;52.138;5.446;2022-12-04T01:53:55;51.00;;;16.55;;
71767;SDS011;59604;52.138;5.446;2022-12-04T01:56:25;48.63;;;14.52;;
71767;SDS011;59604;52.138;5.446;2022-12-04T01:58:58;47.40;;;15.43;;
71767;SDS011;59604;52.138;5.446;2022-12-04T02:01:28;52.15;;;15.77;;
71767;SDS011;59604;52.138;5.446;2022-12-04T02:04:01;47.63;;;13.90;;
71767;SDS011;59604;52.138;5.446;2022-12-04T02:06:28;50.40;;;14.98;;
71767;SDS011;59604;52.138;5.446;2022-12-04T02:08:55;51.33;;;15.75;;
71767;SDS011;59604;52.138;5.446;2022-12-04T02:21:36;53.22;;;15.52;;
71767;SDS011;59604;52.138;5.446;2022-12-04T02:29:35;53.20;;;16.67;;
71767;SDS011;59604;52.138;5.446;2022-12-04T02:32:19;53.58;;;17.50;;
71767;SDS011;59604;52.138;5.446;2022-12-04T02:37:32;51.50;;;15.73;;
71767;SDS011;59604;52.138;5.446;2022-12-04T02:42:40;47.83;;;13.85;;
71767;SDS011;59604;52.138;5.446;2022-12-04T02:45:11;51.58;;;16.40;;
71767;SDS011;59604;52.138;5.446;2022-12-04T02:47:41;50.15;;;14.65;;
71767;SDS011;59604;52.138;5.446;2022-12-04T02:50:12;54.67;;;14.95;;
71767;SDS011;59604;52.138;5.446;2022-12-04T02:52:43;54.33;;;14.32;;
71767;SDS011;59604;52.138;5.446;2022-12-04T02:55:16;51.75;;;16.23;;
71767;SDS011;59604;52.138;5.446;2022-12-04T02:57:49;50.05;;;15.18;;
71767;SDS011;59604;52.138;5.446;2022-12-04T03:00:19;51.45;;;14.52;;
71767;SDS011;59604;52.138;5.446;2022-12-04T03:02:54;48.28;;;14.38;;
71767;SDS011;59604;52.138;5.446;2022-12-04T03:05:38;54.83;;;16.23;;
71767;SDS011;59604;52.138;5.446;2022-12-04T03:08:13;54.83;;;15.63;;
71767;SDS011;59604;52.138;5.446;2022-12-04T03:10:44;52.60;;;14.43;;
71767;SDS011;59604;52.138;5.446;2022-12-04T03:13:20;49.83;;;14.48;;
71767;SDS011;59604;52.138;5.446;2022-12-04T03:15:52;53.95;;;16.48;;
71767;SDS011;59604;52.138;5.446;2022-12-04T03:21:05;48.92;;;15.85;;
71767;SDS011;59604;52.138;5.446;2022-12-04T03:23:44;55.25;;;16.30;;
71767;SDS011;59604;52.138;5.446;2022-12-04T03:26:17;51.78;;;14.85;;
71767;SDS011;59604;52.138;5.446;2022-12-04T03:28:56;55.28;;;16.02;;
71767;SDS011;59604;52.138;5.446;2022-12-04T03:34:24;49.90;;;14.73;;
71767;SDS011;59604;52.138;5.446;2022-12-04T03:36:57;54.22;;;16.27;;
71767;SDS011;59604;52.138;5.446;2022-12-04T03:39:37;51.10;;;15.07;;
71767;SDS011;59604;52.138;5.446;2022-12-04T03:42:12;50.83;;;14.52;;
71767;SDS011;59604;52.138;5.446;2022-12-04T03:44:45;50.90;;;14.68;;
71767;SDS011;59604;52.138;5.446;2022-12-04T03:47:21;53.83;;;16.52;;
71767;SDS011;59604;52.138;5.446;2022-12-04T03:49:56;53.95;;;15.98;;
71767;SDS011;59604;52.138;5.446;2022-12-04T03:57:52;50.08;;;15.25;;
71767;SDS011;59604;52.138;5.446;2022-12-04T04:00:23;54.15;;;14.68;;
71767;SDS011;59604;52.138;5.446;2022-12-04T04:02:56;53.15;;;15.40;;
71767;SDS011;59604;52.138;5.446;2022-12-04T04:05:28;51.72;;;15.27;;
71767;SDS011;59604;52.138;5.446;2022-12-04T04:07:57;50.55;;;14.75;;
71767;SDS011;59604;52.138;5.446;2022-12-04T04:10:47;53.80;;;15.93;;
71767;SDS011;59604;52.138;5.446;2022-12-04T04:13:16;54.45;;;16.08;;
71767;SDS011;59604;52.138;5.446;2022-12-04T04:16:06;52.13;;;16.98;;
71767;SDS011;59604;52.138;5.446;2022-12-04T04:18:55;50.17;;;15.40;;
71767;SDS011;59604;52.138;5.446;2022-12-04T04:21:43;62.25;;;17.85;;
71767;SDS011;59604;52.138;5.446;2022-12-04T04:24:36;53.33;;;16.17;;
71767;SDS011;59604;52.138;5.446;2022-12-04T04:27:08;50.75;;;15.63;;
71767;SDS011;59604;52.138;5.446;2022-12-04T04:29:35;51.25;;;14.93;;
71767;SDS011;59604;52.138;5.446;2022-12-04T04:32:06;52.58;;;17.45;;
71767;SDS011;59604;52.138;5.446;2022-12-04T04:37:25;56.55;;;16.52;;
71767;SDS011;59604;52.138;5.446;2022-12-04T04:42:36;50.55;;;14.80;;
71767;SDS011;59604;52.138;5.446;2022-12-04T04:51:11;53.95;;;15.60;;
71767;SDS011;59604;52.138;5.446;2022-12-04T04:53:41;58.05;;;16.90;;
71767;SDS011;59604;52.138;5.446;2022-12-04T04:56:12;57.20;;;16.35;;
71767;SDS011;59604;52.138;5.446;2022-12-04T04:58:40;50.03;;;15.65;;
71767;SDS011;59604;52.138;5.446;2022-12-04T05:01:11;54.00;;;16.45;;
71767;SDS011;59604;52.138;5.446;2022-12-04T05:03:40;56.05;;;17.15;;
71767;SDS011;59604;52.138;5.446;2022-12-04T05:06:07;54.78;;;16.63;;
71767;SDS011;59604;52.138;5.446;2022-12-04T05:08:35;57.10;;;16.65;;
71767;SDS011;59604;52.138;5.446;2022-12-04T05:11:02;52.97;;;16.40;;
71767;SDS011;59604;52.138;5.446;2022-12-04T05:13:29;63.85;;;19.20;;
71767;SDS011;59604;52.138;5.446;2022-12-04T05:15:57;57.38;;;17.75;;
71767;SDS011;59604;52.138;5.446;2022-12-04T05:20:53;59.80;;;17.08;;
71767;SDS011;59604;52.138;5.446;2022-12-04T05:23:19;49.33;;;14.55;;
71767;SDS011;59604;52.138;5.446;2022-12-04T05:25:46;53.22;;;16.17;;
71767;SDS011;59604;52.138;5.446;2022-12-04T05:28:12;59.85;;;16.52;;
71767;SDS011;59604;52.138;5.446;2022-12-04T05:30:40;57.33;;;15.70;;
71767;SDS011;59604;52.138;5.446;2022-12-04T05:33:08;53.40;;;15.68;;
71767;SDS011;59604;52.138;5.446;2022-12-04T05:35:35;53.22;;;17.05;;
71767;SDS011;59604;52.138;5.446;2022-12-04T05:38:02;52.45;;;16.58;;
71767;SDS011;59604;52.138;5.446;2022-12-04T05:40:28;51.30;;;15.30;;
71767;SDS011;59604;52.138;5.446;2022-12-04T05:42:56;54.63;;;16.17;;
71767;SDS011;59604;52.138;5.446;2022-12-04T05:45:22;55.28;;;16.80;;
71767;SDS011;59604;52.138;5.446;2022-12-04T05:47:49;59.17;;;16.92;;
71767;SDS011;59604;52.138;5.446;2022-12-04T05:50:15;51.40;;;15.18;;
71767;SDS011;59604;52.138;5.446;2022-12-04T05:52:42;55.42;;;16.08;;
71767;SDS011;59604;52.138;5.446;2022-12-04T05:55:08;55.10;;;17.52;;
71767;SDS011;59604;52.138;5.446;2022-12-04T05:57:35;54.75;;;17.23;;
71767;SDS011;59604;52.138;5.446;2022-12-04T06:00:02;57.30;;;17.65;;
71767;SDS011;59604;52.138;5.446;2022-12-04T06:02:30;54.22;;;15.25;;
71767;SDS011;59604;52.138;5.446;2022-12-04T06:07:25;54.88;;;16.95;;
71767;SDS011;59604;52.138;5.446;2022-12-04T06:09:53;45.83;;;13.68;;
71767;SDS011;59604;52.138;5.446;2022-12-04T06:12:20;52.28;;;15.30;;
71767;SDS011;59604;52.138;5.446;2022-12-04T06:14:47;55.28;;;16.00;;
71767;SDS011;59604;52.138;5.446;2022-12-04T06:17:14;55.47;;;16.33;;
71767;SDS011;59604;52.138;5.446;2022-12-04T06:19:40;47.47;;;14.73;;
71767;SDS011;59604;52.138;5.446;2022-12-04T06:22:07;54.08;;;15.30;;
71767;SDS011;59604;52.138;5.446;2022-12-04T06:24:33;53.67;;;16.00;;
71767;SDS011;59604;52.138;5.446;2022-12-04T06:27:00;51.72;;;16.60;;
71767;SDS011;59604;52.138;5.446;2022-12-04T06:29:46;48.38;;;15.18;;
71767;SDS011;59604;52.138;5.446;2022-12-04T06:32:13;50.05;;;15.13;;
71767;SDS011;59604;52.138;5.446;2022-12-04T06:34:48;54.03;;;16.33;;
71767;SDS011;59604;52.138;5.446;2022-12-04T06:37:17;49.45;;;15.13;;
71767;SDS011;59604;52.138;5.446;2022-12-04T06:39:44;51.58;;;15.25;;
71767;SDS011;59604;52.138;5.446;2022-12-04T06:42:11;54.20;;;14.85;;
71767;SDS011;59604;52.138;5.446;2022-12-04T06:44:37;51.70;;;15.40;;
71767;SDS011;59604;52.138;5.446;2022-12-04T06:47:04;51.25;;;15.40;;
71767;SDS011;59604;52.138;5.446;2022-12-04T06:49:31;55.22;;;16.92;;
71767;SDS011;59604;52.138;5.446;2022-12-04T06:51:57;49.47;;;15.23;;
71767;SDS011;59604;52.138;5.446;2022-12-04T06:54:24;51.00;;;16.20;;
71767;SDS011;59604;52.138;5.446;2022-12-04T06:56:51;50.85;;;15.00;;
71767;SDS011;59604;52.138;5.446;2022-12-04T06:59:17;54.67;;;16.42;;
71767;SDS011;59604;52.138;5.446;2022-12-04T07:01:44;52.75;;;14.93;;
71767;SDS011;59604;52.138;5.446;2022-12-04T07:04:10;55.72;;;16.02;;
71767;SDS011;59604;52.138;5.446;2022-12-04T07:06:38;47.67;;;15.20;;
71767;SDS011;59604;52.138;5.446;2022-12-04T07:09:06;43.08;;;14.15;;
71767;SDS011;59604;52.138;5.446;2022-12-04T07:11:38;52.53;;;15.98;;
71767;SDS011;59604;52.138;5.446;2022-12-04T07:14:06;51.30;;;15.23;;
71767;SDS011;59604;52.138;5.446;2022-12-04T07:16:32;53.08;;;14.73;;
71767;SDS011;59604;52.138;5.446;2022-12-04T07:19:05;49.90;;;15.02;;
71767;SDS011;59604;52.138;5.446;2022-12-04T07:21:32;51.65;;;15.48;;
71767;SDS011;59604;52.138;5.446;2022-12-04T07:24:00;52.83;;;15.40;;
71767;SDS011;59604;52.138;5.446;2022-12-04T07:26:27;50.85;;;15.07;;
71767;SDS011;59604;52.138;5.446;2022-12-04T07:31:23;46.40;;;14.38;;
71767;SDS011;59604;52.138;5.446;2022-12-04T07:33:51;54.38;;;16.58;;
71767;SDS011;59604;52.138;5.446;2022-12-04T07:36:19;51.25;;;15.30;;
71767;SDS011;59604;52.138;5.446;2022-12-04T07:38:47;53.75;;;15.25;;
71767;SDS011;59604;52.138;5.446;2022-12-04T07:41:14;53.15;;;17.30;;
71767;SDS011;59604;52.138;5.446;2022-12-04T07:43:41;54.35;;;15.52;;
71767;SDS011;59604;52.138;5.446;2022-12-04T07:46:13;57.05;;;16.65;;
71767;SDS011;59604;52.138;5.446;2022-12-04T07:48:42;51.80;;;16.23;;
71767;SDS011;59604;52.138;5.446;2022-12-04T07:53:42;56.28;;;16.63;;
71767;SDS011;59604;52.138;5.446;2022-12-04T07:56:10;53.13;;;16.10;;
71767;SDS011;59604;52.138;5.446;2022-12-04T07:58:38;52.08;;;15.50;;
71767;SDS011;59604;52.138;5.446;2022-12-04T08:01:09;52.55;;;16.63;;
71767;SDS011;59604;52.138;5.446;2022-12-04T08:03:38;52.63;;;15.85;;
71767;SDS011;59604;52.138;5.446;2022-12-04T08:06:13;66.97;;;25.20;;
71767;SDS011;59604;52.138;5.446;2022-12-04T08:08:41;57.25;;;18.58;;
71767;SDS011;59604;52.138;5.446;2022-12-04T08:11:09;55.33;;;17.15;;
71767;SDS011;59604;52.138;5.446;2022-12-04T08:13:38;59.33;;;16.98;;
71767;SDS011;59604;52.138;5.446;2022-12-04T08:16:05;56.88;;;18.83;;
71767;SDS011;59604;52.138;5.446;2022-12-04T08:18:32;55.42;;;18.05;;
71767;SDS011;59604;52.138;5.446;2022-12-04T08:21:07;49.53;;;16.33;;
71767;SDS011;59604;52.138;5.446;2022-12-04T08:23:39;48.70;;;14.80;;
71767;SDS011;59604;52.138;5.446;2022-12-04T08:26:08;49.28;;;15.45;;
71767;SDS011;59604;52.138;5.446;2022-12-04T08:28:36;53.75;;;16.38;;
71767;SDS011;59604;52.138;5.446;2022-12-04T08:31:11;56.42;;;17.05;;
71767;SDS011;59604;52.138;5.446;2022-12-04T08:36:06;48.97;;;13.90;;
71767;SDS011;59604;52.138;5.446;2022-12-04T08:38:34;54.78;;;16.70;;
71767;SDS011;59604;52.138;5.446;2022-12-04T08:41:02;54.15;;;15.38;;
71767;SDS011;59604;52.138;5.446;2022-12-04T08:43:30;52.40;;;16.20;;
71767;SDS011;59604;52.138;5.446;2022-12-04T08:45:57;54.33;;;15.70;;
71767;SDS011;59604;52.138;5.446;2022-12-04T08:48:25;48.88;;;14.48;;
71767;SDS011;59604;52.138;5.446;2022-12-04T08:50:52;54.75;;;15.73;;
71767;SDS011;59604;52.138;5.446;2022-12-04T08:53:19;51.05;;;16.05;;
71767;SDS011;59604;52.138;5.446;2022-12-04T08:55:46;52.63;;;15.27;;
71767;SDS011;59604;52.138;5.446;2022-12-04T08:58:13;43.65;;;13.88;;
71767;SDS011;59604;52.138;5.446;2022-12-04T09:00:40;50.00;;;15.63;;
71767;SDS011;59604;52.138;5.446;2022-12-04T09:03:08;49.50;;;14.38;;
71767;SDS011;59604;52.138;5.446;2022-12-04T09:05:38;60.67;;;22.15;;
71767;SDS011;59604;52.138;5.446;2022-12-04T09:08:05;67.03;;;23.90;;
71767;SDS011;59604;52.138;5.446;2022-12-04T09:10:33;51.58;;;15.18;;
71767;SDS011;59604;52.138;5.446;2022-12-04T09:13:01;48.63;;;14.52;;
71767;SDS011;59604;52.138;5.446;2022-12-04T09:15:28;50.53;;;15.50;;
71767;SDS011;59604;52.138;5.446;2022-12-04T09:17:55;48.53;;;14.13;;
71767;SDS011;59604;52.138;5.446;2022-12-04T09:20:21;47.50;;;13.85;;
71767;SDS011;59604;52.138;5.446;2022-12-04T09:22:48;47.88;;;14.15;;
71767;SDS011;59604;52.138;5.446;2022-12-04T09:25:28;50.08;;;15.68;;
71767;SDS011;59604;52.138;5.446;2022-12-04T09:27:55;44.92;;;13.57;;
71767;SDS011;59604;52.138;5.446;2022-12-04T09:30:22;45.25;;;13.82;;
71767;SDS011;59604;52.138;5.446;2022-12-04T09:32:48;44.58;;;14.05;;
71767;SDS011;59604;52.138;5.446;2022-12-04T09:35:15;51.95;;;16.08;;
71767;SDS011;59604;52.138;5.446;2022-12-04T09:37:42;49.92;;;14.88;;
71767;SDS011;59604;52.138;5.446;2022-12-04T09:40:11;49.78;;;14.98;;
71767;SDS011;59604;52.138;5.446;2022-12-04T09:43:22;50.17;;;14.27;;
71767;SDS011;59604;52.138;5.446;2022-12-04T09:46:00;44.83;;;14.32;;
71767;SDS011;59604;52.138;5.446;2022-12-04T09:48:33;44.95;;;14.18;;
71767;SDS011;59604;52.138;5.446;2022-12-04T09:51:02;42.22;;;13.95;;
71767;SDS011;59604;52.138;5.446;2022-12-04T09:53:40;45.13;;;14.88;;
71767;SDS011;59604;52.138;5.446;2022-12-04T09:56:12;46.78;;;13.80;;
71767;SDS011;59604;52.138;5.446;2022-12-04T09:58:50;48.35;;;13.48;;
71767;SDS011;59604;52.138;5.446;2022-12-04T10:01:24;45.63;;;14.25;;
71767;SDS011;59604;52.138;5.446;2022-12-04T10:03:56;40.40;;;13.13;;
71767;SDS011;59604;52.138;5.446;2022-12-04T10:22:57;35.90;;;11.15;;
71767;SDS011;59604;52.138;5.446;2022-12-04T10:25:58;38.55;;;11.70;;
71767;SDS011;59604;52.138;5.446;2022-12-04T10:28:38;35.95;;;10.70;;
71767;SDS011;59604;52.138;5.446;2022-12-04T10:31:15;36.03;;;10.80;;
71767;SDS011;59604;52.138;5.446;2022-12-04T10:36:22;35.92;;;11.05;;
71767;SDS011;59604;52.138;5.446;2022-12-04T10:41:45;57.22;;;18.40;;
71767;SDS011;59604;52.138;5.446;2022-12-04T10:44:19;36.22;;;12.15;;
71767;SDS011;59604;52.138;5.446;2022-12-04T10:46:54;32.80;;;11.07;;
71767;SDS011;59604;52.138;5.446;2022-12-04T10:49:33;31.65;;;10.60;;
71767;SDS011;59604;52.138;5.446;2022-12-04T10:52:02;32.17;;;10.40;;
71767;SDS011;59604;52.138;5.446;2022-12-04T10:54:31;33.90;;;10.57;;
71767;SDS011;59604;52.138;5.446;2022-12-04T10:57:01;32.90;;;10.90;;
71767;SDS011;59604;52.138;5.446;2022-12-04T10:59:30;36.78;;;10.90;;
71767;SDS011;59604;52.138;5.446;2022-12-04T11:02:43;31.88;;;10.95;;
71767;SDS011;59604;52.138;5.446;2022-12-04T11:04:55;33.08;;;10.88;;
71767;SDS011;59604;52.138;5.446;2022-12-04T11:07:34;32.90;;;11.30;;
71767;SDS011;59604;52.138;5.446;2022-12-04T11:12:55;29.45;;;9.68;;
71767;SDS011;59604;52.138;5.446;2022-12-04T11:15:24;26.48;;;8.88;;
71767;SDS011;59604;52.138;5.446;2022-12-04T11:17:51;31.35;;;10.07;;
71767;SDS011;59604;52.138;5.446;2022-12-04T11:20:25;30.90;;;9.73;;
71767;SDS011;59604;52.138;5.446;2022-12-04T11:22:56;28.33;;;9.35;;
71767;SDS011;59604;52.138;5.446;2022-12-04T11:25:25;29.15;;;10.07;;
71767;SDS011;59604;52.138;5.446;2022-12-04T11:27:56;27.10;;;9.27;;
71767;SDS011;59604;52.138;5.446;2022-12-04T11:30:33;30.70;;;9.50;;
71767;SDS011;59604;52.138;5.446;2022-12-04T11:33:02;27.27;;;9.43;;
71767;SDS011;59604;52.138;5.446;2022-12-04T11:35:32;26.92;;;9.35;;
71767;SDS011;59604;52.138;5.446;2022-12-04T11:38:06;28.50;;;9.27;;
71767;SDS011;59604;52.138;5.446;2022-12-04T11:40:47;26.60;;;8.32;;
71767;SDS011;59604;52.138;5.446;2022-12-04T11:43:16;25.25;;;9.30;;
71767;SDS011;59604;52.138;5.446;2022-12-04T11:45:54;70.40;;;21.02;;
71767;SDS011;59604;52.138;5.446;2022-12-04T11:48:29;53.72;;;14.35;;
71767;SDS011;59604;52.138;5.446;2022-12-04T11:51:04;36.42;;;11.77;;
71767;SDS011;59604;52.138;5.446;2022-12-04T11:53:42;45.55;;;14.48;;
71767;SDS011;59604;52.138;5.446;2022-12-04T11:56:17;49.53;;;15.32;;
71767;SDS011;59604;52.138;5.446;2022-12-04T12:07:06;23.33;;;9.82;;
71767;SDS011;59604;52.138;5.446;2022-12-04T12:09:46;28.33;;;9.68;;
71767;SDS011;59604;52.138;5.446;2022-12-04T12:20:47;26.27;;;9.85;;
71767;SDS011;59604;52.138;5.446;2022-12-04T12:26:14;24.70;;;8.63;;
71767;SDS011;59604;52.138;5.446;2022-12-04T12:28:46;22.45;;;8.65;;
71767;SDS011;59604;52.138;5.446;2022-12-04T12:34:10;25.20;;;9.40;;
71767;SDS011;59604;52.138;5.446;2022-12-04T12:36:44;23.65;;;9.07;;
71767;SDS011;59604;52.138;5.446;2022-12-04T12:39:17;25.85;;;9.20;;
71767;SDS011;59604;52.138;5.446;2022-12-04T12:41:52;26.58;;;9.43;;
71767;SDS011;59604;52.138;5.446;2022-12-04T12:44:34;23.45;;;8.40;;
71767;SDS011;59604;52.138;5.446;2022-12-04T12:47:39;23.08;;;8.55;;
71767;SDS011;59604;52.138;5.446;2022-12-04T12:50:05;24.20;;;9.02;;
71767;SDS011;59604;52.138;5.446;2022-12-04T12:52:43;23.00;;;8.45;;
71767;SDS011;59604;52.138;5.446;2022-12-04T12:55:18;22.98;;;9.15;;
71767;SDS011;59604;52.138;5.446;2022-12-04T12:58:07;23.88;;;7.97;;
71767;SDS011;59604;52.138;5.446;2022-12-04T13:03:46;21.33;;;8.32;;
71767;SDS011;59604;52.138;5.446;2022-12-04T13:06:25;21.30;;;8.15;;
71767;SDS011;59604;52.138;5.446;2022-12-04T13:09:10;24.83;;;8.45;;
71767;SDS011;59604;52.138;5.446;2022-12-04T13:11:51;24.35;;;8.68;;
71767;SDS011;59604;52.138;5.446;2022-12-04T13:14:23;23.70;;;8.00;;
71767;SDS011;59604;52.138;5.446;2022-12-04T13:16:54;23.08;;;8.88;;
71767;SDS011;59604;52.138;5.446;2022-12-04T13:22:23;22.05;;;8.32;;
71767;SDS011;59604;52.138;5.446;2022-12-04T13:27:44;21.95;;;8.10;;
71767;SDS011;59604;52.138;5.446;2022-12-04T13:30:22;22.08;;;8.73;;
71767;SDS011;59604;52.138;5.446;2022-12-04T13:38:59;25.05;;;9.32;;
71767;SDS011;59604;52.138;5.446;2022-12-04T13:41:28;23.55;;;9.00;;
71767;SDS011;59604;52.138;5.446;2022-12-04T13:44:00;25.35;;;8.70;;
71767;SDS011;59604;52.138;5.446;2022-12-04T13:46:39;25.33;;;9.00;;
71767;SDS011;59604;52.138;5.446;2022-12-04T13:51:45;26.88;;;9.55;;
71767;SDS011;59604;52.138;5.446;2022-12-04T13:56:43;25.42;;;9.27;;
71767;SDS011;59604;52.138;5.446;2022-12-04T14:02:02;25.10;;;9.70;;
71767;SDS011;59604;52.138;5.446;2022-12-04T14:04:56;27.60;;;9.70;;
71767;SDS011;59604;52.138;5.446;2022-12-04T14:07:30;27.55;;;9.48;;
71767;SDS011;59604;52.138;5.446;2022-12-04T14:12:55;27.40;;;9.65;;
71767;SDS011;59604;52.138;5.446;2022-12-04T14:15:32;28.88;;;9.65;;
71767;SDS011;59604;52.138;5.446;2022-12-04T14:20:34;32.55;;;12.25;;
71767;SDS011;59604;52.138;5.446;2022-12-04T14:28:21;35.15;;;12.73;;
71767;SDS011;59604;52.138;5.446;2022-12-04T14:31:07;42.17;;;15.77;;
71767;SDS011;59604;52.138;5.446;2022-12-04T14:34:29;32.65;;;11.02;;
71767;SDS011;59604;52.138;5.446;2022-12-04T14:36:59;57.33;;;18.92;;
71767;SDS011;59604;52.138;5.446;2022-12-04T14:39:31;32.17;;;10.85;;
71767;SDS011;59604;52.138;5.446;2022-12-04T14:42:12;52.10;;;18.88;;
71767;SDS011;59604;52.138;5.446;2022-12-04T14:44:43;39.45;;;12.93;;
71767;SDS011;59604;52.138;5.446;2022-12-04T14:47:18;35.75;;;12.13;;
71767;SDS011;59604;52.138;5.446;2022-12-04T14:50:01;36.42;;;10.93;;
71767;SDS011;59604;52.138;5.446;2022-12-04T14:52:41;32.40;;;11.15;;
71767;SDS011;59604;52.138;5.446;2022-12-04T14:55:16;43.78;;;13.77;;
71767;SDS011;59604;52.138;5.446;2022-12-04T14:58:03;39.42;;;14.18;;
71767;SDS011;59604;52.138;5.446;2022-12-04T15:03:50;35.08;;;12.02;;
71767;SDS011;59604;52.138;5.446;2022-12-04T15:08:51;39.80;;;13.23;;
71767;SDS011;59604;52.138;5.446;2022-12-04T15:11:44;42.42;;;14.48;;
71767;SDS011;59604;52.138;5.446;2022-12-04T15:14:43;37.70;;;11.57;;
71767;SDS011;59604;52.138;5.446;2022-12-04T15:17:12;46.00;;;14.77;;
71767;SDS011;59604;52.138;5.446;2022-12-04T15:19:41;44.42;;;13.65;;
71767;SDS011;59604;52.138;5.446;2022-12-04T15:22:26;40.38;;;13.43;;
71767;SDS011;59604;52.138;5.446;2022-12-04T15:24:53;42.47;;;14.40;;
71767;SDS011;59604;52.138;5.446;2022-12-04T15:27:22;40.90;;;13.77;;
71767;SDS011;59604;52.138;5.446;2022-12-04T15:29:57;46.97;;;15.07;;
71767;SDS011;59604;52.138;5.446;2022-12-04T15:32:26;39.58;;;14.32;;
71767;SDS011;59604;52.138;5.446;2022-12-04T15:35:02;42.80;;;12.82;;
71767;SDS011;59604;52.138;5.446;2022-12-04T15:37:34;40.83;;;13.50;;
71767;SDS011;59604;52.138;5.446;2022-12-04T15:40:04;39.88;;;12.95;;
71767;SDS011;59604;52.138;5.446;2022-12-04T15:42:47;37.10;;;13.23;;
71767;SDS011;59604;52.138;5.446;2022-12-04T15:53:14;40.25;;;13.48;;
71767;SDS011;59604;52.138;5.446;2022-12-04T15:55:47;37.22;;;12.27;;
71767;SDS011;59604;52.138;5.446;2022-12-04T16:01:00;40.20;;;13.88;;
71767;SDS011;59604;52.138;5.446;2022-12-04T16:03:30;43.92;;;14.27;;
71767;SDS011;59604;52.138;5.446;2022-12-04T16:06:04;152.88;;;36.65;;
71767;SDS011;59604;52.138;5.446;2022-12-04T16:08:36;77.53;;;22.45;;
71767;SDS011;59604;52.138;5.446;2022-12-04T16:11:06;54.83;;;19.08;;
71767;SDS011;59604;52.138;5.446;2022-12-04T16:13:48;52.08;;;17.58;;
71767;SDS011;59604;52.138;5.446;2022-12-04T16:16:27;60.13;;;20.13;;
71767;SDS011;59604;52.138;5.446;2022-12-04T16:18:54;48.30;;;17.48;;
71767;SDS011;59604;52.138;5.446;2022-12-04T16:21:21;55.03;;;19.40;;
71767;SDS011;59604;52.138;5.446;2022-12-04T16:23:59;53.03;;;17.77;;
71767;SDS011;59604;52.138;5.446;2022-12-04T16:26:27;88.72;;;26.67;;
71767;SDS011;59604;52.138;5.446;2022-12-04T16:28:53;116.18;;;39.20;;
71767;SDS011;59604;52.138;5.446;2022-12-04T16:31:20;43.38;;;16.25;;
71767;SDS011;59604;52.138;5.446;2022-12-04T16:33:48;37.47;;;12.20;;
71767;SDS011;59604;52.138;5.446;2022-12-04T16:36:15;40.00;;;13.50;;
71767;SDS011;59604;52.138;5.446;2022-12-04T16:38:42;39.15;;;12.35;;
71767;SDS011;59604;52.138;5.446;2022-12-04T16:41:11;34.95;;;12.85;;
71767;SDS011;59604;52.138;5.446;2022-12-04T16:43:39;43.42;;;16.80;;
71767;SDS011;59604;52.138;5.446;2022-12-04T16:46:13;70.85;;;20.77;;
71767;SDS011;59604;52.138;5.446;2022-12-04T16:48:41;40.75;;;13.75;;
71767;SDS011;59604;52.138;5.446;2022-12-04T16:51:16;39.72;;;13.27;;
71767;SDS011;59604;52.138;5.446;2022-12-04T16:53:49;41.83;;;13.50;;
71767;SDS011;59604;52.138;5.446;2022-12-04T16:56:17;44.55;;;14.27;;
71767;SDS011;59604;52.138;5.446;2022-12-04T16:58:44;69.03;;;26.42;;
71767;SDS011;59604;52.138;5.446;2022-12-04T17:01:19;40.95;;;13.77;;
71767;SDS011;59604;52.138;5.446;2022-12-04T17:03:46;52.38;;;19.60;;
71767;SDS011;59604;52.138;5.446;2022-12-04T17:06:13;39.17;;;14.45;;
71767;SDS011;59604;52.138;5.446;2022-12-04T17:08:40;38.72;;;13.77;;
71767;SDS011;59604;52.138;5.446;2022-12-04T17:11:08;42.50;;;16.75;;
71767;SDS011;59604;52.138;5.446;2022-12-04T17:13:37;41.67;;;15.00;;
71767;SDS011;59604;52.138;5.446;2022-12-04T17:16:04;38.35;;;13.77;;
71767;SDS011;59604;52.138;5.446;2022-12-04T17:18:31;37.40;;;13.60;;
71767;SDS011;59604;52.138;5.446;2022-12-04T17:20:57;37.45;;;13.15;;
71767;SDS011;59604;52.138;5.446;2022-12-04T17:23:24;34.50;;;13.40;;